createdAt,value
2018-06-22T00:00:37.239Z,1.00
2018-06-22T00:03:04.629Z,1.00
2018-06-22T00:05:31.928Z,1.00
2018-06-22T00:07:59.225Z,1.00
2018-06-22T00:10:26.636Z,1.00
2018-06-22T00:12:54.367Z,1.00
2018-06-22T00:15:22.515Z,1.00
2018-06-22T00:17:52.573Z,1.00
2018-06-22T00:20:19.913Z,1.00
2018-06-22T00:22:47.191Z,1.40
2018-06-22T00:25:14.547Z,1.70
2018-06-22T00:27:43.187Z,1.50
2018-06-22T00:30:10.492Z,1.70
2018-06-22T00:32:37.851Z,1.40
2018-06-22T00:35:05.407Z,1.40
2018-06-22T00:37:32.678Z,1.50
2018-06-22T00:40:00.134Z,1.80
2018-06-22T00:42:27.417Z,1.20
2018-06-22T00:44:54.771Z,1.10
2018-06-22T00:47:22.085Z,1.20
2018-06-22T00:49:49.382Z,1.00
2018-06-22T00:52:16.663Z,1.00
2018-06-22T00:54:43.956Z,1.00
2018-06-22T00:57:11.261Z,1.10
2018-06-22T00:59:38.687Z,1.80
2018-06-22T01:02:05.996Z,2.10
2018-06-22T01:04:33.287Z,2.40
2018-06-22T01:07:00.553Z,2.40
2018-06-22T01:09:27.970Z,1.80
2018-06-22T01:11:55.811Z,2.40
2018-06-22T01:14:23.463Z,2.30
2018-06-22T01:16:50.753Z,2.30
2018-06-22T01:19:18.145Z,2.70
2018-06-22T01:21:46.422Z,2.40
2018-06-22T01:24:13.808Z,2.20
2018-06-22T01:26:41.171Z,3.20
2018-06-22T01:29:14.112Z,3.40
2018-06-22T01:31:41.370Z,3.10
2018-06-22T01:34:08.667Z,3.50
2018-06-22T01:36:35.942Z,3.60
2018-06-22T01:39:05.120Z,3.40
2018-06-22T01:41:32.462Z,2.60
2018-06-22T01:43:59.854Z,3.30
2018-06-22T01:46:27.167Z,3.40
2018-06-22T01:48:54.538Z,2.40
2018-06-22T01:51:21.803Z,3.10
2018-06-22T01:53:49.054Z,3.20
2018-06-22T01:56:16.303Z,3.40
2018-06-22T01:58:43.557Z,2.70
2018-06-22T02:01:10.837Z,2.80
2018-06-22T02:03:38.360Z,2.50
2018-06-22T02:06:06.472Z,2.80
2018-06-22T02:08:33.944Z,3.40
2018-06-22T02:11:01.445Z,3.30
2018-06-22T02:13:28.915Z,3.60
2018-06-22T02:15:56.367Z,3.90
2018-06-22T02:18:23.618Z,3.80
2018-06-22T02:20:51.174Z,3.30
2018-06-22T02:23:18.455Z,3.60
2018-06-22T02:25:46.059Z,3.60
2018-06-22T02:28:13.501Z,3.10
2018-06-22T02:30:40.919Z,3.20
2018-06-22T02:33:08.282Z,3.20
2018-06-22T02:35:35.530Z,3.80
2018-06-22T02:38:02.818Z,3.80
2018-06-22T02:40:30.079Z,4.10
2018-06-22T02:42:57.512Z,4.90
2018-06-22T02:45:24.808Z,4.90
2018-06-22T02:52:47.220Z,6.40
2018-06-22T02:55:14.710Z,6.10
2018-06-22T02:57:42.015Z,6.30
2018-06-22T03:00:09.630Z,6.10
2018-06-22T03:02:37.102Z,6.50
2018-06-22T03:05:04.663Z,6.90
2018-06-22T03:07:31.993Z,6.50
2018-06-22T03:10:02.048Z,7.60
2018-06-22T03:12:29.279Z,7.20
2018-06-22T03:14:56.601Z,7.40
2018-06-22T03:17:24.074Z,7.00
2018-06-22T03:19:51.341Z,8.50
2018-06-22T03:22:18.597Z,8.50
2018-06-22T03:24:45.863Z,8.00
2018-06-22T03:27:13.315Z,8.00
2018-06-22T03:29:40.560Z,8.50
2018-06-22T03:32:08.206Z,7.90
2018-06-22T03:34:35.407Z,8.30
2018-06-22T03:37:02.788Z,7.30
2018-06-22T03:39:30.171Z,7.70
2018-06-22T03:41:58.366Z,6.80
2018-06-22T03:44:25.712Z,7.10
2018-06-22T03:46:53.072Z,6.90
2018-06-22T03:49:20.334Z,7.60
2018-06-22T03:51:48.118Z,6.80
2018-06-22T03:54:15.467Z,6.80
2018-06-22T03:56:43.052Z,6.60
2018-06-22T03:59:10.329Z,6.30
2018-06-22T04:01:37.635Z,6.00
2018-06-22T04:04:05.010Z,6.00
2018-06-22T04:06:32.286Z,6.00
2018-06-22T04:08:59.638Z,5.30
2018-06-22T04:11:26.888Z,5.90
2018-06-22T04:13:54.402Z,5.60
2018-06-22T04:16:21.727Z,6.00
2018-06-22T04:18:49.011Z,5.60
2018-06-22T04:21:16.333Z,5.50
2018-06-22T04:23:43.636Z,5.30
2018-06-22T04:26:10.934Z,5.20
2018-06-22T04:28:38.230Z,5.20
2018-06-22T04:31:05.619Z,5.20
2018-06-22T04:33:32.911Z,5.60
2018-06-22T04:36:01.079Z,5.70
2018-06-22T04:38:28.522Z,5.20
2018-06-22T04:40:55.787Z,5.20
2018-06-22T04:43:23.080Z,5.40
2018-06-22T04:45:50.543Z,4.80
2018-06-22T04:48:17.871Z,4.60
2018-06-22T04:50:45.198Z,4.90
2018-06-22T04:53:12.643Z,4.70
2018-06-22T04:55:40.011Z,4.20
2018-06-22T04:58:07.327Z,4.00
2018-06-22T05:00:34.619Z,4.50
2018-06-22T05:03:01.891Z,4.40
2018-06-22T05:05:29.218Z,4.40
2018-06-22T05:07:56.497Z,4.80
2018-06-22T05:10:23.794Z,4.50
2018-06-22T05:12:51.074Z,4.50
2018-06-22T05:15:18.676Z,4.30
2018-06-22T05:17:46.011Z,4.20
2018-06-22T05:20:13.432Z,4.20
2018-06-22T05:22:40.782Z,4.10
2018-06-22T05:25:08.049Z,4.00
2018-06-22T05:27:36.147Z,3.90
2018-06-22T05:30:03.727Z,3.50
2018-06-22T05:32:31.041Z,4.00
2018-06-22T05:34:58.611Z,3.40
2018-06-22T05:37:26.162Z,3.30
2018-06-22T05:39:57.945Z,3.70
2018-06-22T05:42:25.447Z,4.50
2018-06-22T05:44:52.916Z,5.00
2018-06-22T05:47:20.406Z,6.80
2018-06-22T05:49:47.882Z,8.10
2018-06-22T05:52:15.429Z,8.30
2018-06-22T05:54:42.929Z,9.50
2018-06-22T05:57:10.369Z,9.20
2018-06-22T05:59:37.932Z,8.50
2018-06-22T06:02:05.742Z,9.10
2018-06-22T06:04:33.095Z,8.90
2018-06-22T06:07:00.408Z,9.60
2018-06-22T06:09:27.802Z,11.80
2018-06-22T06:11:55.069Z,10.60
2018-06-22T06:14:22.529Z,11.40
2018-06-22T06:16:50.300Z,12.00
2018-06-22T06:19:17.526Z,12.10
2018-06-22T06:21:45.577Z,12.30
2018-06-22T06:24:12.772Z,13.20
2018-06-22T06:26:40.070Z,13.20
2018-06-22T06:31:35.105Z,15.80
2018-06-22T06:34:02.288Z,17.30
2018-06-22T06:36:30.116Z,17.70
2018-06-22T06:38:58.991Z,17.70
2018-06-22T06:41:28.558Z,19.30
2018-06-22T06:43:55.737Z,20.20
2018-06-22T06:46:22.910Z,23.10
2018-06-22T06:48:50.116Z,23.50
2018-06-22T06:51:17.298Z,26.90
2018-06-22T06:53:44.631Z,29.30
2018-06-22T06:56:13.234Z,31.30
2018-06-22T06:58:41.847Z,34.90
2018-06-22T07:01:09.039Z,38.50
2018-06-22T07:03:36.484Z,39.30
2018-06-22T07:06:03.736Z,42.50
2018-06-22T07:08:34.169Z,42.10
2018-06-22T07:11:02.313Z,41.70
2018-06-22T07:13:29.650Z,39.80
2018-06-22T07:15:56.872Z,40.60
2018-06-22T07:18:25.487Z,41.10
2018-06-22T07:20:52.848Z,40.30
2018-06-22T07:23:20.091Z,41.80
2018-06-22T07:25:47.244Z,40.80
2018-06-22T07:28:18.032Z,39.00
2018-06-22T07:30:45.333Z,37.60
2018-06-22T07:33:12.481Z,36.90
2018-06-22T07:35:39.744Z,37.60
2018-06-22T07:38:06.920Z,36.50
2018-06-22T07:40:34.118Z,36.90
2018-06-22T07:43:01.306Z,37.50
2018-06-22T07:45:30.227Z,39.40
2018-06-22T07:48:00.405Z,39.70
2018-06-22T07:50:27.957Z,38.00
2018-06-22T07:52:55.128Z,37.50
2018-06-22T07:55:22.356Z,36.20
2018-06-22T07:57:52.930Z,37.00
2018-06-22T08:00:20.605Z,37.30
2018-06-22T08:02:47.800Z,40.00
2018-06-22T08:05:15.020Z,36.00
2018-06-22T08:07:42.205Z,35.30
2018-06-22T08:10:09.372Z,35.70
2018-06-22T08:12:36.588Z,33.80
2018-06-22T08:17:31.079Z,35.20
2018-06-22T08:19:58.243Z,35.00
2018-06-22T08:22:25.402Z,33.90
2018-06-22T08:24:52.696Z,36.10
2018-06-22T08:27:19.877Z,34.20
2018-06-22T08:29:47.084Z,35.70
2018-06-22T08:32:14.316Z,34.90
2018-06-22T08:34:41.604Z,33.00
2018-06-22T08:37:08.800Z,31.20
2018-06-22T08:39:35.960Z,33.10
2018-06-22T08:42:03.732Z,32.90
2018-06-22T08:44:30.893Z,34.50
2018-06-22T08:46:58.272Z,34.90
2018-06-22T08:49:25.614Z,36.60
2018-06-22T08:51:52.960Z,36.80
2018-06-22T08:54:20.291Z,38.20
2018-06-22T08:56:47.637Z,36.20
2018-06-22T08:59:15.029Z,31.90
2018-06-22T09:01:42.485Z,28.90
2018-06-22T09:04:09.816Z,28.30
2018-06-22T09:06:37.187Z,26.10
2018-06-22T09:09:06.430Z,24.90
2018-06-22T09:11:33.806Z,25.50
2018-06-22T09:14:01.185Z,22.00
2018-06-22T09:16:28.553Z,21.90
2018-06-22T09:18:56.001Z,22.90
2018-06-22T09:21:23.385Z,23.10
2018-06-22T09:23:50.701Z,21.80
2018-06-22T09:26:18.049Z,19.90
2018-06-22T09:28:45.390Z,18.20
2018-06-22T09:31:12.847Z,16.00
2018-06-22T09:33:40.243Z,15.30
2018-06-22T09:36:07.599Z,15.50
2018-06-22T09:38:34.960Z,16.90
2018-06-22T09:41:02.437Z,17.40
2018-06-22T09:43:29.831Z,19.90
2018-06-22T09:45:57.844Z,20.70
2018-06-22T09:48:25.342Z,22.50
2018-06-22T09:50:52.666Z,24.40
2018-06-22T09:53:20.045Z,24.50
2018-06-22T09:55:47.485Z,26.00
2018-06-22T09:58:14.871Z,24.10
2018-06-22T10:00:46.840Z,23.90
2018-06-22T10:03:14.300Z,24.80
2018-06-22T10:05:41.662Z,24.10
2018-06-22T10:08:09.009Z,22.90
2018-06-22T10:10:36.442Z,24.40
2018-06-22T10:13:04.105Z,26.40
2018-06-22T10:15:31.577Z,29.40
2018-06-22T10:17:59.117Z,32.40
2018-06-22T10:20:26.586Z,34.10
2018-06-22T10:22:53.983Z,34.70
2018-06-22T10:25:21.388Z,35.80
2018-06-22T10:27:48.757Z,37.20
2018-06-22T10:30:16.135Z,41.70
2018-06-22T10:32:43.592Z,49.10
2018-06-22T10:35:11.603Z,47.40
2018-06-22T10:37:42.430Z,51.60
2018-06-22T10:40:09.836Z,46.30
2018-06-22T10:42:37.209Z,39.10
2018-06-22T10:45:04.768Z,35.30
2018-06-22T10:47:32.204Z,34.50
2018-06-22T10:49:59.826Z,35.10
2018-06-22T10:52:27.381Z,30.00
2018-06-22T10:54:54.773Z,28.50
2018-06-22T10:57:22.200Z,29.20
2018-06-22T10:59:49.747Z,31.30
2018-06-22T11:02:17.124Z,30.60
2018-06-22T11:04:44.501Z,25.50
2018-06-22T11:07:12.401Z,25.60
2018-06-22T11:09:39.799Z,21.80
2018-06-22T11:12:07.209Z,23.00
2018-06-22T11:14:34.644Z,24.10
2018-06-22T11:17:02.095Z,22.60
2018-06-22T11:21:57.017Z,22.30
2018-06-22T11:24:24.998Z,21.80
2018-06-22T11:26:52.399Z,23.10
2018-06-22T11:29:19.802Z,20.00
2018-06-22T11:31:47.212Z,23.80
2018-06-22T11:34:14.611Z,27.70
2018-06-22T11:36:42.013Z,23.60
2018-06-22T11:39:10.330Z,24.60
2018-06-22T11:41:38.508Z,25.90
2018-06-22T11:46:33.470Z,28.50
2018-06-22T11:49:00.888Z,30.30
2018-06-22T11:51:28.394Z,37.70
2018-06-22T11:53:55.884Z,38.20
2018-06-22T11:56:23.295Z,34.60
2018-06-22T11:58:51.108Z,35.60
2018-06-22T12:03:45.976Z,31.10
2018-06-22T12:06:13.988Z,26.20
2018-06-22T12:08:41.452Z,25.70
2018-06-22T12:11:08.860Z,21.80
2018-06-22T12:13:36.315Z,20.10
2018-06-22T12:16:03.732Z,19.30
2018-06-22T12:18:31.173Z,17.60
2018-06-22T12:20:58.637Z,15.70
2018-06-22T12:23:26.088Z,15.30
2018-06-22T12:25:53.445Z,20.50
2018-06-22T12:28:20.946Z,17.50
2018-06-22T12:30:48.328Z,15.70
2018-06-22T12:33:16.218Z,15.10
2018-06-22T12:35:44.317Z,15.60
2018-06-22T12:38:12.216Z,15.90
2018-06-22T12:40:39.621Z,10.20
2018-06-22T12:43:07.234Z,12.40
2018-06-22T12:45:34.656Z,14.20
2018-06-22T12:48:02.260Z,10.60
2018-06-22T12:50:29.682Z,10.70
2018-06-22T12:52:57.095Z,7.70
2018-06-22T12:55:24.481Z,5.90
2018-06-22T12:57:51.934Z,6.60
2018-06-22T13:00:19.344Z,5.70
2018-06-22T13:02:46.722Z,8.10
2018-06-22T13:05:14.372Z,7.60
2018-06-22T13:07:41.834Z,11.60
2018-06-22T13:10:09.335Z,11.10
2018-06-22T13:12:36.736Z,9.40
2018-06-22T13:15:04.324Z,10.50
2018-06-22T13:17:31.812Z,8.80
2018-06-22T13:19:59.372Z,11.10
2018-06-22T13:22:26.767Z,10.60
2018-06-22T13:24:54.172Z,10.20
2018-06-22T13:27:21.537Z,9.60
2018-06-22T13:29:48.909Z,9.00
2018-06-22T13:32:16.244Z,8.00
2018-06-22T13:34:43.667Z,9.00
2018-06-22T13:37:11.044Z,9.60
2018-06-22T13:39:38.404Z,12.70
2018-06-22T13:42:05.790Z,12.60
2018-06-22T13:44:33.372Z,12.50
2018-06-22T13:47:00.849Z,14.10
2018-06-22T13:49:28.269Z,13.40
2018-06-22T13:51:55.677Z,13.10
2018-06-22T13:54:23.307Z,15.00
2018-06-22T13:56:50.740Z,15.70
2018-06-22T13:59:18.140Z,13.80
2018-06-22T14:01:45.529Z,14.00
2018-06-22T14:04:18.564Z,15.50
2018-06-22T14:06:50.371Z,12.50
2018-06-22T14:09:17.836Z,14.70
2018-06-22T14:11:45.244Z,11.80
2018-06-22T14:14:14.250Z,12.00
2018-06-22T14:16:41.973Z,12.50
2018-06-22T14:19:09.486Z,12.40
2018-06-22T14:21:37.054Z,13.90
2018-06-22T14:24:05.221Z,12.60
2018-06-22T14:26:32.652Z,9.00
2018-06-22T14:29:00.212Z,10.60
2018-06-22T14:31:28.688Z,8.30
2018-06-22T14:33:56.564Z,11.10
2018-06-22T14:36:24.308Z,8.60
2018-06-22T14:38:51.772Z,5.90
2018-06-22T14:41:19.372Z,7.50
2018-06-22T14:43:46.849Z,7.70
2018-06-22T14:46:14.349Z,6.90
2018-06-22T14:48:41.829Z,6.50
2018-06-22T14:51:09.249Z,6.00
2018-06-22T14:53:42.428Z,1.80
2018-06-22T14:56:15.610Z,3.90
2018-06-22T14:58:48.764Z,5.10
2018-06-22T15:01:21.898Z,4.90
2018-06-22T15:03:55.085Z,2.80
2018-06-22T15:06:28.224Z,3.10
2018-06-22T15:08:55.748Z,1.00
2018-06-22T15:11:23.236Z,1.20
2018-06-22T15:13:50.707Z,1.00
2018-06-22T15:16:18.164Z,1.00
2018-06-22T15:18:47.072Z,1.00
2018-06-22T15:21:14.512Z,1.00
2018-06-22T15:23:45.782Z,1.00
2018-06-22T15:26:13.197Z,1.00
2018-06-22T15:28:40.884Z,1.00
2018-06-22T15:31:08.420Z,1.00
2018-06-22T15:33:41.584Z,1.00
2018-06-22T15:36:14.649Z,1.00
2018-06-22T15:38:47.657Z,1.00
2018-06-22T15:41:20.783Z,1.00
2018-06-22T15:43:53.759Z,1.00
2018-06-22T15:46:26.900Z,1.00
2018-06-22T15:48:59.992Z,1.00
2018-06-22T15:53:41.501Z,1.00
2018-06-22T15:56:09.988Z,1.00
2018-06-22T15:58:37.197Z,1.00
2018-06-22T16:01:04.465Z,1.00
2018-06-22T16:04:38.028Z,1.00
2018-06-22T16:07:05.568Z,1.00
2018-06-22T16:09:38.479Z,1.00
2018-06-22T16:12:11.659Z,1.00
2018-06-22T16:14:44.863Z,1.00
2018-06-22T16:17:18.107Z,1.00
2018-06-22T16:19:51.171Z,1.00
2018-06-22T16:22:27.584Z,1.00
2018-06-22T16:25:00.620Z,1.00
2018-06-22T16:27:28.070Z,1.00
2018-06-22T16:29:55.492Z,1.00
2018-06-22T16:32:22.895Z,1.00
2018-06-22T16:34:50.292Z,1.00
2018-06-22T16:37:17.679Z,1.00
2018-06-22T16:39:45.162Z,1.00
2018-06-22T16:42:12.707Z,1.00
2018-06-22T16:44:40.160Z,1.00
2018-06-22T16:47:07.519Z,1.00
2018-06-22T16:49:34.884Z,1.00
2018-06-22T16:52:02.250Z,1.00
2018-06-22T16:54:29.671Z,1.00
2018-06-22T16:56:57.240Z,1.00
2018-06-22T16:59:24.619Z,1.00
2018-06-22T17:01:52.063Z,1.00
2018-06-22T17:04:19.457Z,1.00
2018-06-22T17:06:52.537Z,1.00
2018-06-22T17:09:25.580Z,1.00
2018-06-22T17:11:58.820Z,1.00
2018-06-22T17:14:32.113Z,1.00
2018-06-22T17:18:04.864Z,1.00
2018-06-22T17:20:32.169Z,1.00
2018-06-22T17:22:59.388Z,1.00
2018-06-22T17:25:29.216Z,1.00
2018-06-22T17:27:56.627Z,1.00
2018-06-22T17:30:23.877Z,1.00
2018-06-22T17:32:51.052Z,1.00
2018-06-22T17:35:18.308Z,1.00
2018-06-22T17:37:45.548Z,1.00
2018-06-22T17:40:12.844Z,1.00
2018-06-22T17:42:40.125Z,1.00
2018-06-22T17:45:07.380Z,1.00
2018-06-22T17:47:34.709Z,1.00
2018-06-22T17:50:07.414Z,1.00
2018-06-22T17:52:34.688Z,1.00
2018-06-22T17:55:01.986Z,1.00
2018-06-22T17:57:29.216Z,1.00
2018-06-22T18:00:02.289Z,1.00
2018-06-22T18:02:35.199Z,1.00
2018-06-22T18:05:08.092Z,1.00
2018-06-22T18:07:40.132Z,1.00
2018-06-22T18:10:13.078Z,1.00
2018-06-22T18:12:46.760Z,1.00
2018-06-22T18:15:14.135Z,1.00
2018-06-22T18:17:41.344Z,1.00
2018-06-22T18:20:08.617Z,1.00
2018-06-22T18:22:35.817Z,1.00
2018-06-22T18:25:03.045Z,1.00
2018-06-22T18:27:30.376Z,1.00
2018-06-22T18:29:57.677Z,1.00
2018-06-22T18:32:24.900Z,1.00
2018-06-22T18:34:52.101Z,1.00
2018-06-22T18:37:19.334Z,1.00
2018-06-22T18:39:46.546Z,1.00
2018-06-22T18:42:13.872Z,1.00
2018-06-22T18:44:41.268Z,1.00
2018-06-22T18:47:08.648Z,1.00
2018-06-22T18:49:36.081Z,1.00
2018-06-22T18:52:09.181Z,1.00
2018-06-22T18:54:42.203Z,1.00
2018-06-22T18:57:15.220Z,1.00
2018-06-22T18:59:47.084Z,1.00
2018-06-22T19:02:20.752Z,1.00
2018-06-22T19:04:47.948Z,1.00
2018-06-22T19:07:15.265Z,1.00
2018-06-22T19:09:42.476Z,1.00
2018-06-22T19:12:09.668Z,1.00
2018-06-22T19:14:36.859Z,1.00
2018-06-22T19:17:04.388Z,1.00
2018-06-22T19:19:31.643Z,1.00
2018-06-22T19:21:59.231Z,1.00
2018-06-22T19:24:26.792Z,1.00
2018-06-22T19:26:54.009Z,1.00
2018-06-22T19:29:21.385Z,1.00
2018-06-22T19:31:48.582Z,1.00
2018-06-22T19:34:19.200Z,1.00
2018-06-22T19:36:46.602Z,1.00
2018-06-22T19:39:13.996Z,1.00
2018-06-22T19:41:41.384Z,1.00
2018-06-22T19:44:14.361Z,1.00
2018-06-22T19:48:53.410Z,1.00
2018-06-22T19:51:26.681Z,1.00
2018-06-22T19:53:57.306Z,1.20
2018-06-22T19:56:24.746Z,1.70
2018-06-22T19:58:52.210Z,2.10
2018-06-22T20:01:20.184Z,2.30
2018-06-22T20:03:47.632Z,2.40
2018-06-22T20:06:15.158Z,2.50
2018-06-22T20:08:42.611Z,2.60
2018-06-22T20:11:10.589Z,2.20
2018-06-22T20:13:38.260Z,2.90
2018-06-22T20:16:05.816Z,2.30
2018-06-22T20:18:33.159Z,2.40
2018-06-22T20:21:00.545Z,2.30
2018-06-22T20:23:28.036Z,3.30
2018-06-22T20:25:55.445Z,2.70
2018-06-22T20:28:22.835Z,2.90
2018-06-22T20:30:53.528Z,3.00
2018-06-22T20:33:21.284Z,3.70
2018-06-22T20:35:54.599Z,3.10
2018-06-22T20:41:00.697Z,3.60
2018-06-22T20:43:50.965Z,4.10
2018-06-22T20:46:24.693Z,4.20
2018-06-22T20:48:58.380Z,4.10
2018-06-22T20:51:30.502Z,4.10
2018-06-22T20:53:57.961Z,4.70
2018-06-22T20:58:52.972Z,4.30
2018-06-22T21:01:20.392Z,5.40
2018-06-22T21:03:47.961Z,5.30
2018-06-22T21:06:15.608Z,5.10
2018-06-22T21:08:43.201Z,4.80
2018-06-22T21:11:10.828Z,4.80
2018-06-22T21:13:38.268Z,5.00
2018-06-22T21:16:06.325Z,4.60
2018-06-22T21:18:33.876Z,5.00
2018-06-22T21:21:07.253Z,4.90
2018-06-22T21:23:34.760Z,5.20
2018-06-22T21:26:02.272Z,5.50
2018-06-22T21:30:41.216Z,5.20
2018-06-22T21:33:14.148Z,5.00
2018-06-22T21:35:47.272Z,5.70
2018-06-22T21:38:20.181Z,6.20
2018-06-22T21:40:47.506Z,5.80
2018-06-22T21:43:14.808Z,6.70
2018-06-22T21:45:42.131Z,6.30
2018-06-22T21:48:09.600Z,6.30
2018-06-22T21:50:36.886Z,6.50
2018-06-22T21:53:04.178Z,6.60
2018-06-22T21:55:32.057Z,6.50
2018-06-22T21:57:59.360Z,6.40
2018-06-22T22:00:30.414Z,6.60
2018-06-22T22:02:59.424Z,6.40
2018-06-22T22:05:27.864Z,6.80
2018-06-22T22:07:55.246Z,7.40
2018-06-22T22:10:28.160Z,7.20
2018-06-22T22:12:55.777Z,7.00
2018-06-22T22:15:23.219Z,7.70
2018-06-22T22:17:50.535Z,7.50
2018-06-22T22:20:17.863Z,7.70
2018-06-22T22:22:45.183Z,7.50
2018-06-22T22:25:12.420Z,7.30
2018-06-22T22:27:39.714Z,8.20
2018-06-22T22:30:07.144Z,8.30
2018-06-22T22:32:34.370Z,8.20
2018-06-22T22:35:01.707Z,8.30
2018-06-22T22:37:28.972Z,8.70
2018-06-22T22:39:56.228Z,8.50
2018-06-22T22:42:23.454Z,8.70
2018-06-22T22:44:50.792Z,8.90
2018-06-22T22:47:18.052Z,8.70
2018-06-22T22:49:45.233Z,8.60
2018-06-22T22:52:12.453Z,8.00
2018-06-22T22:54:39.697Z,8.90
2018-06-22T22:57:06.962Z,9.20
2018-06-22T22:59:34.213Z,9.00
2018-06-22T23:02:01.458Z,9.10
2018-06-22T23:04:28.764Z,8.90
2018-06-22T23:06:55.965Z,8.70
2018-06-22T23:09:23.256Z,8.80
2018-06-22T23:11:51.560Z,9.50
2018-06-22T23:14:18.884Z,9.60
2018-06-22T23:16:46.181Z,9.50
2018-06-22T23:19:13.446Z,9.60
2018-06-22T23:21:40.861Z,9.80
2018-06-22T23:24:08.247Z,9.50
2018-06-22T23:26:35.564Z,9.10
2018-06-22T23:29:02.957Z,9.10
2018-06-22T23:31:30.330Z,10.50
2018-06-22T23:33:57.578Z,9.60
2018-06-22T23:36:24.883Z,9.60
2018-06-22T23:38:53.164Z,9.90
2018-06-22T23:41:20.381Z,10.40
2018-06-22T23:46:14.944Z,10.00
2018-06-22T23:48:42.161Z,9.90
2018-06-22T23:51:09.396Z,10.00
2018-06-22T23:53:36.735Z,10.20
2018-06-22T23:56:04.023Z,10.40
2018-06-22T23:58:31.384Z,10.00
